Terminal Aerodrome Forecast
Issued by NWS Jacksonville, FL

Home | Current Version | Previous Version | Text Only | Print | Product List | Glossary On
Versions: 1 2 3 4 5 6 7 8 9 10 11 12 13 14 15 16
000
FTUS42 KJAX 051721
TAFSSI
TAF
KSSI 051721Z 0518/0618 09014G22KT P6SM BKN050
     FM060100 05008KT P6SM SCT040 BKN250
     FM061400 04015G25KT P6SM BKN040=

USA.gov is the U.S. government's official web portal to all federal, state and local government web resources and services.